Ringgold, VA

4:41 AM EDT on April 18, 2015 (GMT -0400)
Danville Regional | Change Station
CLOSE
Current Station
Airport
Location: Danville,
Elevation: 571 ft
Nearby Weather Stations

Elev 571 ft 36.57 °N, 79.34 °W | Updated 9 minutes ago

Overcast
Overcast
59 °F
Feels Like 59 °F
N
0
Wind Variable Wind from North

Today
High -- | Low -- °F
--% Chance of Precip.
Yesterday
High -- | Low -- °F
Precip. -- in
6:39 AM 7:54 PM
Waning Crescent, 0% visible
Pressure 29.97 in
Visibility 2.5 miles
Clouds Clear
Dew Point 57 °F
Humidity 93%
Rainfall 0.00 in
Snow Depth Not available.
UV 0 out of 12
Pollen 10.00 out of 12
Air Quality Not available.
Flu Activity Local Activity
SPECI KDAN 180832Z AUTO 00000KT 2 1/2SM BR CLR 15/14 A2997 RMK AO2 VIS 2V5 T01500139

More Conditions Fewer Conditions

Pressure 29.97 in
Visibility 2.5 miles
Clouds Clear
Dew Point 57 °F
Humidity 93%
Rainfall 0.00 in
Snow Depth Not available.
UV 0 out of 12
Pollen 10.00 out of 12
Air Quality Not available.
Flu Activity Local Activity
SPECI KDAN 180832Z AUTO 00000KT 2 1/2SM BR CLR 15/14 A2997 RMK AO2 VIS 2V5 T01500139

More Conditions Fewer Conditions

10-Day Weather Forecast

Almanac

Astronomy

Apr. 18, 2015 Rise Set
Actual Time 6:39 AM EDT 7:54 PM EDT
Civil Twilight 6:13 AM EDT 8:20 PM EDT
Nautical Twilight 5:41 AM EDT 8:52 PM EDT
Astronomical Twilight 5:07 AM EDT 9:26 PM EDT
Moon 6:37 AM EDT 8:00 PM EDT
Length of Visible Light 14h 07m
Length of Day
13h 14m
Tomorrow will be 2m 10s longer.
Waning Crescent, 0% of the Moon is Illuminated
Today
Waning Crescent
Apr 18
New
Apr 25
First Quarter
May 3
Full
May 11
Last Quarter

Today's Extremes

State Highs State Lows

Community

WunderPhotos

Upload Photos

1,814,345 photos uploaded!

Nearby

Snow Depth

Station Depth Elevation
No new snow has been reported.

Earthquake Activity

City Distance Mag. Time & Date
No recent earthquake activity has been reported nearby.
Minimum magnitude displayed is 2.5.

Coastal Water Temperatures

Place Temperature
No Stations Reporting

Nearby Weather Stations